createdAt,value
2019-05-11T00:00:20.558Z,0.00
2019-05-11T00:01:20.521Z,0.00
2019-05-11T00:02:20.502Z,0.00
2019-05-11T00:03:20.479Z,0.00
2019-05-11T00:04:20.458Z,0.00
2019-05-11T00:05:20.438Z,0.00
2019-05-11T00:06:20.435Z,0.00
2019-05-11T00:07:20.404Z,0.00
2019-05-11T00:08:20.418Z,0.00
2019-05-11T00:09:20.361Z,0.00
2019-05-11T00:10:23.391Z,0.00
2019-05-11T00:11:20.336Z,0.00
2019-05-11T00:12:20.306Z,0.00
2019-05-11T00:13:20.284Z,0.00
2019-05-11T00:14:20.261Z,0.00
2019-05-11T00:15:20.243Z,0.00
2019-05-11T00:16:20.241Z,0.00
2019-05-11T00:17:20.206Z,0.00
2019-05-11T00:18:20.183Z,0.00
2019-05-11T00:19:20.171Z,0.00
2019-05-11T00:20:20.146Z,0.00
2019-05-11T00:21:20.186Z,0.00
2019-05-11T00:22:20.119Z,0.00
2019-05-11T00:23:20.086Z,0.00
2019-05-11T00:24:20.067Z,0.00
2019-05-11T00:25:20.047Z,0.00
2019-05-11T00:26:20.028Z,0.00
2019-05-11T00:27:20.019Z,0.00
2019-05-11T00:28:19.986Z,0.00
2019-05-11T00:29:19.971Z,0.00
2019-05-11T00:30:19.948Z,0.00
2019-05-11T00:31:19.931Z,0.00
2019-05-11T00:32:22.786Z,0.00
2019-05-11T00:33:19.890Z,0.00
2019-05-11T00:34:19.871Z,0.00
2019-05-11T00:35:19.851Z,0.00
2019-05-11T00:36:19.832Z,0.00
2019-05-11T00:37:19.849Z,0.00
2019-05-11T00:38:19.801Z,0.00
2019-05-11T08:00:23.964Z,5552.00
2019-05-11T08:01:23.915Z,4628.00
2019-05-11T08:02:23.892Z,4600.00
2019-05-11T08:03:23.866Z,4908.00
2019-05-11T08:04:23.847Z,4880.00
2019-05-11T08:05:23.854Z,4916.00
2019-05-11T08:06:23.808Z,5604.00
2019-05-11T08:07:23.778Z,4504.00
2019-05-11T08:08:25.221Z,3768.00
2019-05-11T08:09:23.738Z,3564.00
2019-05-11T08:10:23.715Z,3708.00
2019-05-11T08:11:23.711Z,4008.00
2019-05-11T08:12:23.674Z,3788.00
2019-05-11T08:13:23.654Z,3988.00
2019-05-11T08:14:23.631Z,4220.00
2019-05-11T08:15:23.611Z,4376.00
2019-05-11T08:16:23.613Z,4316.00
2019-05-11T08:17:23.570Z,4788.00
2019-05-11T08:18:23.549Z,4360.00
2019-05-11T08:19:23.530Z,3560.00
2019-05-11T08:20:23.510Z,3560.00
2019-05-11T08:21:23.489Z,4100.00
2019-05-11T08:22:23.484Z,4504.00
2019-05-11T08:48:34.385Z,6504.00
2019-05-11T08:49:34.349Z,6576.00
2019-05-11T08:50:34.339Z,6664.00
2019-05-11T08:51:34.322Z,7028.00
2019-05-11T08:52:34.280Z,7516.00
2019-05-11T08:53:34.259Z,8040.00
2019-05-11T08:54:34.236Z,8576.00
2019-05-11T08:55:34.216Z,9052.00
2019-05-11T08:56:34.194Z,9408.00
2019-05-11T08:57:34.198Z,9864.00
2019-05-11T08:58:34.155Z,9996.00
2019-05-11T08:59:34.137Z,9912.00
2019-05-11T09:00:34.115Z,9516.00
2019-05-11T09:01:34.095Z,9140.00
2019-05-11T09:02:34.112Z,8784.00
2019-05-11T09:03:34.055Z,8396.00
2019-05-11T09:04:34.034Z,7860.00
2019-05-11T09:05:34.017Z,7596.00
2019-05-11T09:06:33.999Z,7216.00
2019-05-11T09:07:33.978Z,6856.00
2019-05-11T09:08:33.972Z,6608.00
2019-05-11T09:22:59.998Z,7500.00
2019-05-11T09:23:59.960Z,7596.00
2019-05-11T09:24:59.922Z,7636.00
2019-05-11T09:25:59.902Z,7660.00
2019-05-11T09:26:59.886Z,7784.00
2019-05-11T09:27:59.861Z,7740.00
2019-05-11T09:28:59.857Z,7624.00
2019-05-11T09:29:59.821Z,7684.00
2019-05-11T09:30:59.801Z,7652.00
2019-05-11T09:31:59.798Z,7632.00
2019-05-11T09:32:59.761Z,7840.00
2019-05-11T09:33:59.740Z,7904.00
2019-05-11T09:34:59.736Z,7888.00
2019-05-11T09:35:59.699Z,8196.00
2019-05-11T09:44:12.320Z,9092.00
2019-05-11T09:45:12.284Z,8820.00
2019-05-11T09:46:12.276Z,8528.00
2019-05-11T09:47:12.242Z,8292.00
2019-05-11T09:48:12.223Z,7992.00
2019-05-11T09:49:12.203Z,7664.00
2019-05-11T09:50:12.182Z,7564.00
2019-05-11T09:51:12.201Z,7372.00
2019-05-11T10:01:29.611Z,7900.00
2019-05-11T10:02:28.113Z,7868.00
2019-05-11T10:03:28.248Z,7868.00
2019-05-11T10:04:28.845Z,7836.00
2019-05-11T10:05:28.692Z,7800.00
2019-05-11T10:06:28.197Z,7804.00
2019-05-11T10:07:28.614Z,7836.00
2019-05-11T10:08:28.720Z,7860.00
2019-05-11T10:17:29.872Z,8056.00
2019-05-11T10:18:29.855Z,8204.00
2019-05-11T10:19:29.814Z,8300.00
2019-05-11T10:20:29.794Z,8480.00
2019-05-11T10:21:29.774Z,8692.00
2019-05-11T10:22:29.755Z,8860.00
2019-05-11T10:23:29.735Z,9100.00
2019-05-11T10:24:29.730Z,9336.00
2019-05-11T10:25:29.698Z,9628.00
2019-05-11T10:26:29.677Z,9952.00
2019-05-11T10:27:29.656Z,10348.00
2019-05-11T10:28:29.635Z,10780.00
2019-05-11T10:29:29.634Z,11212.00
2019-05-11T10:30:29.599Z,11664.00
2019-05-11T10:31:29.582Z,11972.00
2019-05-11T10:32:29.558Z,12044.00
2019-05-11T10:33:29.539Z,11972.00
2019-05-11T10:34:29.533Z,11808.00
2019-05-11T10:35:29.506Z,11616.00
2019-05-11T10:36:29.481Z,11464.00
2019-05-11T10:37:29.465Z,11356.00
2019-05-11T10:38:29.448Z,11200.00
2019-05-11T10:39:29.446Z,10960.00
2019-05-11T10:40:29.409Z,10680.00
2019-05-11T10:45:33.277Z,10412.00
2019-05-11T10:46:33.243Z,10420.00
2019-05-11T10:47:33.224Z,10064.00
2019-05-11T10:48:33.203Z,10032.00
2019-05-11T10:49:33.187Z,9996.00
2019-05-11T10:50:33.180Z,10016.00
2019-05-11T10:51:42.444Z,9988.00
2019-05-11T10:52:33.127Z,10268.00
2019-05-11T10:53:33.108Z,10644.00
2019-05-11T10:54:33.094Z,10828.00
2019-05-11T10:55:33.088Z,10872.00
2019-05-11T10:56:33.052Z,10696.00
2019-05-11T10:57:33.032Z,10400.00
2019-05-11T10:58:33.015Z,10212.00
2019-05-11T10:59:32.998Z,10416.00
2019-05-11T11:04:29.876Z,10320.00
2019-05-11T11:05:29.879Z,10848.00
2019-05-11T11:06:29.824Z,10768.00
2019-05-11T11:07:29.803Z,10560.00
2019-05-11T11:08:29.785Z,10768.00
2019-05-11T11:09:29.766Z,10376.00
2019-05-11T11:10:38.560Z,9920.00
2019-05-11T11:11:29.727Z,10436.00
2019-05-11T11:12:29.717Z,11116.00
2019-05-11T11:13:29.702Z,11232.00
2019-05-11T11:14:29.671Z,11420.00
2019-05-11T11:15:29.653Z,11156.00
2019-05-11T11:16:36.809Z,11096.00
2019-05-11T11:17:29.615Z,10444.00
2019-05-11T11:18:29.599Z,9700.00
2019-05-11T11:22:06.611Z,9580.00
2019-05-11T11:22:58.353Z,8968.00
2019-05-11T11:23:58.700Z,9004.00
2019-05-11T11:24:58.715Z,9388.00
2019-05-11T11:25:58.559Z,9848.00
2019-05-11T11:26:57.631Z,10056.00
2019-05-11T11:27:57.854Z,10356.00
2019-05-11T11:28:58.101Z,10524.00
2019-05-11T11:29:58.280Z,10600.00
2019-05-11T11:30:58.414Z,10788.00
2019-05-11T11:31:58.625Z,11124.00
2019-05-11T11:32:58.765Z,11504.00
2019-05-11T11:33:58.507Z,11924.00
2019-05-11T11:34:57.792Z,11912.00
2019-05-11T11:35:57.939Z,11860.00
2019-05-11T11:36:58.017Z,11884.00
2019-05-11T11:37:58.449Z,11792.00
2019-05-11T11:38:58.366Z,11928.00
2019-05-11T11:39:58.122Z,11844.00
2019-05-11T11:40:58.513Z,11696.00
2019-05-11T11:41:58.632Z,11496.00
2019-05-11T11:42:58.129Z,10992.00
2019-05-11T11:43:58.518Z,10252.00
2019-05-11T11:48:13.036Z,8056.00
2019-05-11T11:49:12.999Z,7772.00
2019-05-11T11:50:12.980Z,7488.00
2019-05-11T12:17:33.189Z,6760.00
2019-05-11T12:18:33.153Z,7348.00
2019-05-11T12:19:33.131Z,7612.00
2019-05-11T12:20:33.113Z,7644.00
2019-05-11T12:21:33.107Z,7888.00
2019-05-11T12:22:33.068Z,7652.00
2019-05-11T12:30:29.093Z,7640.00
2019-05-11T12:31:32.529Z,7972.00
2019-05-11T12:32:29.049Z,8908.00
2019-05-11T12:33:29.012Z,9764.00
2019-05-11T12:34:28.991Z,10460.00
2019-05-11T12:35:28.974Z,9932.00
2019-05-11T12:46:19.084Z,6456.00
2019-05-11T12:47:24.131Z,6640.00
2019-05-11T12:48:18.501Z,6656.00
2019-05-11T12:49:18.799Z,6772.00
2019-05-11T12:55:12.866Z,8916.00
2019-05-11T12:56:12.827Z,9256.00
2019-05-11T12:57:12.809Z,9584.00
2019-05-11T12:58:12.787Z,9724.00
2019-05-11T12:59:12.808Z,9928.00
2019-05-11T13:00:12.756Z,9812.00
2019-05-11T13:01:12.734Z,9588.00
2019-05-11T13:02:12.712Z,9892.00
2019-05-11T13:03:12.692Z,10320.00
2019-05-11T13:04:12.704Z,10828.00
2019-05-11T13:05:12.666Z,10848.00
2019-05-11T13:06:12.637Z,11288.00
2019-05-11T13:07:12.617Z,11804.00
2019-05-11T13:08:12.597Z,11808.00
2019-05-11T13:09:12.580Z,11800.00
2019-05-11T13:10:12.572Z,11724.00
2019-05-11T13:11:12.544Z,11424.00
2019-05-11T13:12:12.527Z,11268.00
2019-05-11T13:13:12.505Z,11532.00
2019-05-11T13:14:12.488Z,11656.00
2019-05-11T13:15:12.489Z,11632.00
2019-05-11T13:16:12.453Z,11316.00
2019-05-11T13:17:12.435Z,11332.00
2019-05-11T13:18:12.417Z,11156.00
2019-05-11T13:19:12.408Z,10664.00
2019-05-11T13:20:13.116Z,10456.00
2019-05-11T13:21:12.378Z,9580.00
2019-05-11T13:22:12.352Z,8464.00
2019-05-11T13:28:31.593Z,10376.00
2019-05-11T13:29:31.556Z,11380.00
2019-05-11T13:30:31.538Z,12144.00
2019-05-11T13:31:31.537Z,12868.00
2019-05-11T13:32:31.503Z,13436.00
2019-05-11T13:33:31.486Z,13808.00
2019-05-11T13:34:40.771Z,14492.00
2019-05-11T13:35:31.448Z,15192.00
2019-05-11T13:36:31.441Z,15792.00
2019-05-11T13:37:31.410Z,16768.00
2019-05-11T13:38:31.391Z,17440.00
2019-05-11T13:39:31.374Z,16672.00
2019-05-11T13:40:31.356Z,15648.00
2019-05-11T13:41:31.358Z,16672.00
2019-05-11T13:42:31.320Z,17760.00
2019-05-11T13:43:31.304Z,17664.00
2019-05-11T13:44:31.288Z,17952.00
2019-05-11T13:45:31.271Z,19200.00
2019-05-11T13:46:31.253Z,21792.00
2019-05-11T13:47:31.249Z,25920.00
2019-05-11T13:48:31.218Z,63712.00
2019-05-11T13:49:32.617Z,56224.00
2019-05-11T13:50:31.187Z,31648.00
2019-05-11T13:51:31.168Z,28064.00
2019-05-11T13:52:31.166Z,26208.00
2019-05-11T13:53:31.136Z,26368.00
2019-05-11T13:54:31.119Z,22592.00
2019-05-11T13:55:31.105Z,20864.00
2019-05-11T13:56:32.339Z,19296.00
2019-05-11T13:57:31.091Z,18272.00
2019-05-11T13:58:31.057Z,17728.00
2019-05-11T13:59:31.042Z,17184.00
2019-05-11T14:00:31.026Z,16492.00
2019-05-11T14:01:31.012Z,15240.00
2019-05-11T14:02:30.992Z,14472.00
2019-05-11T14:03:31.003Z,11708.00
2019-05-11T14:04:30.962Z,10220.00
2019-05-11T14:05:30.947Z,9416.00
2019-05-11T14:06:30.935Z,8204.00
2019-05-11T14:07:30.917Z,6980.00
2019-05-11T14:08:30.913Z,5892.00
2019-05-11T14:09:30.918Z,4996.00
2019-05-11T14:10:30.872Z,6388.00
2019-05-11T14:11:30.853Z,7320.00
2019-05-11T14:12:30.838Z,8280.00
2019-05-11T14:13:30.837Z,9020.00
2019-05-11T14:14:30.808Z,9640.00
2019-05-11T14:15:30.788Z,10616.00
2019-05-11T14:16:30.770Z,12216.00
2019-05-11T14:17:31.859Z,13460.00
2019-05-11T14:18:30.738Z,14580.00
2019-05-11T14:19:30.735Z,15504.00
2019-05-11T14:20:30.704Z,15832.00
2019-05-11T14:21:30.690Z,17248.00
2019-05-11T14:22:30.674Z,17056.00
2019-05-11T14:23:31.399Z,17696.00
2019-05-11T14:24:30.654Z,19104.00
2019-05-11T14:25:30.623Z,18528.00
2019-05-11T14:26:30.607Z,18176.00
2019-05-11T14:27:30.591Z,18016.00
2019-05-11T14:28:30.575Z,18848.00
2019-05-11T14:29:30.588Z,20384.00
2019-05-11T14:30:30.549Z,22272.00
2019-05-11T14:31:30.557Z,22912.00
2019-05-11T14:32:30.506Z,25024.00
2019-05-11T14:33:30.492Z,18624.00
2019-05-11T14:34:30.477Z,19584.00
2019-05-11T14:35:30.472Z,20288.00
2019-05-11T14:36:30.442Z,21248.00
2019-05-11T14:37:30.428Z,22848.00
2019-05-11T14:38:30.409Z,21760.00
2019-05-11T14:39:30.396Z,20608.00
2019-05-11T14:40:30.400Z,18112.00
2019-05-11T14:41:30.363Z,16608.00
2019-05-11T14:42:30.347Z,15368.00
2019-05-11T14:43:30.329Z,14240.00
2019-05-11T14:44:30.315Z,13736.00
2019-05-11T14:45:30.322Z,13384.00
2019-05-11T14:46:30.281Z,13584.00
2019-05-11T14:47:30.265Z,13848.00
2019-05-11T14:48:30.454Z,14788.00
2019-05-11T14:49:30.233Z,16452.00
2019-05-11T14:50:30.236Z,18688.00
2019-05-11T14:51:30.203Z,19776.00
2019-05-11T14:52:30.186Z,20224.00
2019-05-11T14:53:30.170Z,20608.00
2019-05-11T14:54:30.154Z,20576.00
2019-05-11T14:55:30.159Z,19584.00
2019-05-11T14:56:30.121Z,19648.00
2019-05-11T14:57:30.109Z,18304.00
2019-05-11T14:58:30.098Z,16704.00
2019-05-11T14:59:30.072Z,16192.00
2019-05-11T15:00:30.056Z,16004.00
2019-05-11T15:01:30.055Z,16128.00
2019-05-11T15:02:30.025Z,16576.00
2019-05-11T15:03:30.010Z,17408.00
2019-05-11T15:04:29.993Z,17184.00
2019-05-11T15:05:29.981Z,16768.00
2019-05-11T15:06:29.988Z,16896.00
2019-05-11T15:07:29.955Z,17088.00
2019-05-11T15:08:29.952Z,17408.00
2019-05-11T15:09:29.933Z,18848.00
2019-05-11T15:10:29.897Z,20416.00
2019-05-11T15:11:29.881Z,21472.00
2019-05-11T15:12:29.880Z,23040.00
2019-05-11T15:13:29.880Z,24256.00
2019-05-11T15:14:29.837Z,28480.00
2019-05-11T15:15:29.821Z,31872.00
2019-05-11T15:16:29.805Z,35520.00
2019-05-11T15:17:29.831Z,40896.00
2019-05-11T15:18:38.462Z,34240.00
2019-05-11T15:19:29.757Z,31424.00
2019-05-11T15:20:29.740Z,31072.00
2019-05-11T15:21:29.726Z,30880.00
2019-05-11T15:22:29.723Z,50208.00
2019-05-11T15:23:29.719Z,84928.00
2019-05-11T15:24:29.677Z,84608.00
2019-05-11T15:25:29.663Z,43232.00
2019-05-11T15:26:29.648Z,85984.00
2019-05-11T15:27:29.661Z,88928.00
2019-05-11T15:28:29.619Z,85088.00
2019-05-11T15:29:29.609Z,81344.00
2019-05-11T15:30:29.597Z,77088.00
2019-05-11T15:31:29.591Z,75840.00
2019-05-11T15:32:29.568Z,77504.00
2019-05-11T15:33:29.570Z,76640.00
2019-05-11T15:34:29.554Z,72288.00
2019-05-11T15:35:29.533Z,72992.00
2019-05-11T15:36:29.523Z,73984.00
2019-05-11T15:37:29.512Z,72128.00
2019-05-11T15:38:29.525Z,72672.00
2019-05-11T15:39:29.494Z,74176.00
2019-05-11T15:40:29.483Z,59840.00
2019-05-11T15:41:29.473Z,33184.00
2019-05-11T15:42:30.759Z,72704.00
2019-05-11T15:43:29.455Z,71712.00
2019-05-11T15:44:29.473Z,70144.00
2019-05-11T15:45:29.436Z,68448.00
2019-05-11T15:46:29.429Z,68480.00
2019-05-11T15:47:30.653Z,70016.00
2019-05-11T15:48:29.408Z,70784.00
2019-05-11T15:49:29.415Z,67008.00
2019-05-11T15:50:29.394Z,65600.00
2019-05-11T15:51:29.385Z,65696.00
2019-05-11T15:52:29.377Z,68960.00
2019-05-11T15:53:29.370Z,69184.00
2019-05-11T15:54:29.434Z,64864.00
2019-05-11T15:55:29.354Z,63712.00
2019-05-11T15:56:29.470Z,26112.00
2019-05-11T15:57:29.339Z,51552.00
2019-05-11T15:58:29.334Z,28608.00
2019-05-11T15:59:30.507Z,61760.00
2019-05-11T16:00:29.316Z,62432.00
2019-05-11T16:01:29.308Z,56288.00
2019-05-11T16:02:29.302Z,56896.00
2019-05-11T16:03:29.296Z,53152.00
2019-05-11T16:04:29.291Z,58272.00
2019-05-11T16:05:29.293Z,57088.00
2019-05-11T16:06:29.278Z,51744.00
2019-05-11T16:07:29.266Z,15276.00
2019-05-11T16:08:29.258Z,12008.00
2019-05-11T16:09:29.253Z,11788.00
2019-05-11T16:10:29.256Z,9272.00
2019-05-11T16:11:29.234Z,8560.00
2019-05-11T16:12:29.228Z,6320.00
2019-05-11T16:13:29.221Z,5688.00
2019-05-11T16:14:29.223Z,5696.00
2019-05-11T16:15:29.215Z,6200.00
2019-05-11T16:16:29.190Z,7156.00
2019-05-11T16:17:29.180Z,12796.00
2019-05-11T16:18:29.171Z,9136.00
2019-05-11T16:19:29.160Z,11944.00
2019-05-11T16:20:29.165Z,12140.00
2019-05-11T16:21:29.136Z,36800.00
2019-05-11T16:22:29.124Z,38112.00
2019-05-11T16:23:29.140Z,30976.00
2019-05-11T16:24:29.100Z,36416.00
2019-05-11T16:25:29.090Z,22272.00
2019-05-11T16:26:29.092Z,11512.00
2019-05-11T16:27:29.066Z,11636.00
2019-05-11T16:28:30.902Z,12248.00
2019-05-11T16:29:29.041Z,10520.00
2019-05-11T16:30:29.031Z,8848.00
2019-05-11T16:31:29.047Z,8944.00
2019-05-11T16:32:29.007Z,10372.00
2019-05-11T16:33:28.993Z,10960.00
2019-05-11T16:34:28.985Z,10748.00
2019-05-11T16:35:28.969Z,10584.00
2019-05-11T16:36:28.955Z,10656.00
2019-05-11T16:37:28.997Z,10760.00
2019-05-11T16:38:29.155Z,11032.00
2019-05-11T16:39:28.916Z,11596.00
2019-05-11T16:40:29.529Z,12312.00
2019-05-11T16:41:29.272Z,13368.00
2019-05-11T16:42:30.577Z,14148.00
2019-05-11T16:43:28.860Z,14084.00
2019-05-11T16:44:28.847Z,13268.00
2019-05-11T16:45:28.833Z,13400.00
2019-05-11T16:46:28.818Z,14100.00
2019-05-11T16:47:28.817Z,13604.00
2019-05-11T16:48:28.789Z,13428.00
2019-05-11T16:49:32.277Z,13848.00
2019-05-11T16:50:28.761Z,13964.00
2019-05-11T16:51:28.745Z,13996.00
2019-05-11T16:52:28.745Z,13996.00
2019-05-11T16:53:28.715Z,12496.00
2019-05-11T16:54:28.702Z,8692.00
2019-05-11T16:55:28.687Z,5956.00
2019-05-11T16:56:28.671Z,5052.00
2019-05-11T16:57:28.674Z,4792.00
2019-05-11T16:58:28.641Z,5192.00
2019-05-11T16:59:28.629Z,5660.00
2019-05-11T17:00:28.611Z,6480.00
2019-05-11T17:01:28.599Z,6692.00
2019-05-11T17:02:30.462Z,6732.00
2019-05-11T17:03:28.581Z,5700.00
2019-05-11T17:04:31.025Z,5004.00
2019-05-11T17:05:33.260Z,4400.00
2019-05-11T17:06:31.556Z,3936.00
2019-05-11T17:07:30.040Z,3412.00
2019-05-11T17:08:28.507Z,3332.00
2019-05-11T17:09:28.508Z,3388.00
2019-05-11T17:10:28.578Z,3728.00
2019-05-11T17:11:28.915Z,3956.00
2019-05-11T17:12:28.703Z,4000.00
2019-05-11T17:13:28.441Z,3800.00
2019-05-11T17:14:28.407Z,3916.00
2019-05-11T17:15:28.872Z,4468.00
2019-05-11T17:16:28.565Z,5168.00
2019-05-11T17:17:28.344Z,5368.00
2019-05-11T17:18:28.710Z,5420.00
2019-05-11T17:19:42.530Z,4856.00
2019-05-11T17:20:28.296Z,4976.00
2019-05-11T17:21:29.651Z,5216.00
2019-05-11T17:22:28.380Z,5236.00
2019-05-11T17:23:30.594Z,5148.00
2019-05-11T17:24:28.465Z,5228.00
2019-05-11T17:25:28.800Z,5612.00
2019-05-11T17:26:28.202Z,5896.00
2019-05-11T17:27:28.625Z,6884.00
2019-05-11T17:28:28.164Z,8888.00
2019-05-11T17:29:28.168Z,6696.00
2019-05-11T17:30:28.138Z,5908.00
2019-05-11T17:31:28.115Z,5248.00
2019-05-11T17:32:29.398Z,5012.00
2019-05-11T17:33:28.086Z,5192.00
2019-05-11T17:34:28.509Z,5936.00
2019-05-11T17:35:28.073Z,6116.00
2019-05-11T17:36:28.031Z,4936.00
2019-05-11T17:37:28.607Z,4852.00
2019-05-11T17:38:28.166Z,4860.00
2019-05-11T17:39:28.273Z,5696.00
2019-05-11T17:40:28.473Z,5324.00
2019-05-11T17:41:28.058Z,6788.00
2019-05-11T17:42:27.936Z,6300.00
2019-05-11T17:43:28.189Z,6628.00
2019-05-11T17:44:27.926Z,6652.00
2019-05-11T17:45:27.881Z,6168.00
2019-05-11T17:46:28.049Z,4960.00
2019-05-11T17:47:28.248Z,5344.00
2019-05-11T17:48:28.297Z,4600.00
2019-05-11T17:49:27.845Z,3512.00
2019-05-11T17:50:28.168Z,2780.00
2019-05-11T17:51:28.606Z,2372.00
2019-05-11T17:52:28.253Z,1868.00
2019-05-11T17:53:28.603Z,1764.00
2019-05-11T17:54:28.464Z,1552.00
2019-05-11T17:55:28.616Z,1452.00
2019-05-11T17:56:28.036Z,1236.00
2019-05-11T17:57:27.855Z,1176.00
2019-05-11T17:58:27.797Z,1060.00
2019-05-11T17:59:28.269Z,968.00
2019-05-11T18:00:28.321Z,888.00
2019-05-11T18:01:27.779Z,960.00
2019-05-11T18:02:28.848Z,1000.00
2019-05-11T18:03:27.963Z,936.00
2019-05-11T18:04:27.561Z,1004.00
2019-05-11T18:05:27.554Z,1124.00
2019-05-11T18:06:27.526Z,1364.00
2019-05-11T18:07:30.668Z,1736.00
2019-05-11T18:08:30.252Z,2264.00
2019-05-11T18:09:27.475Z,2908.00
2019-05-11T18:10:28.319Z,3204.00
2019-05-11T18:11:29.792Z,3212.00
2019-05-11T18:12:28.632Z,3060.00
2019-05-11T18:13:28.400Z,2728.00
2019-05-11T18:14:28.183Z,2556.00
2019-05-11T18:15:27.373Z,2396.00
2019-05-11T18:16:27.362Z,2324.00
2019-05-11T18:17:27.352Z,2384.00
2019-05-11T18:18:29.114Z,2512.00
2019-05-11T18:19:27.639Z,2364.00
2019-05-11T18:20:28.689Z,2388.00
2019-05-11T18:21:28.057Z,2444.00
2019-05-11T18:22:28.511Z,2528.00
2019-05-11T18:23:28.250Z,2588.00
2019-05-11T18:24:28.486Z,2588.00
2019-05-11T18:25:28.777Z,2440.00
2019-05-11T18:26:28.614Z,2260.00
2019-05-11T18:27:27.884Z,2128.00
2019-05-11T18:28:29.190Z,2056.00
2019-05-11T18:29:28.826Z,1932.00
2019-05-11T18:30:29.136Z,1824.00
2019-05-11T18:31:28.498Z,1768.00
2019-05-11T18:32:28.426Z,1752.00
2019-05-11T18:33:27.725Z,1732.00
2019-05-11T18:34:27.043Z,1684.00
2019-05-11T18:35:27.879Z,1628.00
2019-05-11T18:36:28.908Z,1548.00
2019-05-11T18:37:28.079Z,1456.00
2019-05-11T18:38:27.636Z,1372.00
2019-05-11T18:39:28.674Z,1288.00
2019-05-11T18:40:28.714Z,1204.00
2019-05-11T18:41:28.323Z,1124.00
2019-05-11T18:42:26.900Z,1056.00
2019-05-11T18:43:28.004Z,988.00
2019-05-11T18:44:26.879Z,932.00
2019-05-11T18:45:28.750Z,880.00
2019-05-11T18:46:27.921Z,832.00
2019-05-11T18:47:26.811Z,788.00
2019-05-11T18:48:28.946Z,744.00
2019-05-11T18:49:28.484Z,700.00
2019-05-11T18:50:31.322Z,664.00
2019-05-11T18:51:26.737Z,632.00
2019-05-11T18:52:26.720Z,596.00
2019-05-11T18:53:28.929Z,564.00
2019-05-11T18:54:27.723Z,536.00
2019-05-11T18:55:28.124Z,508.00
2019-05-11T18:56:28.538Z,484.00
2019-05-11T18:57:27.795Z,460.00
2019-05-11T18:58:27.689Z,436.00
2019-05-11T18:59:28.354Z,412.00
2019-05-11T19:00:27.631Z,392.00
2019-05-11T19:01:28.531Z,372.00
2019-05-11T19:02:27.908Z,352.00
2019-05-11T19:03:28.111Z,328.00
2019-05-11T19:04:28.562Z,304.00
2019-05-11T19:05:26.482Z,284.00
2019-05-11T19:06:28.518Z,260.00
2019-05-11T19:07:28.260Z,240.00
2019-05-11T19:08:27.960Z,220.00
2019-05-11T19:09:28.368Z,208.00
2019-05-11T19:10:27.760Z,192.00
2019-05-11T19:11:28.799Z,176.00
2019-05-11T19:12:27.932Z,160.00
2019-05-11T19:13:28.105Z,144.00
2019-05-11T19:14:28.162Z,128.00
2019-05-11T19:15:26.314Z,116.00
2019-05-11T19:16:28.643Z,100.00
2019-05-11T19:17:28.871Z,88.00
2019-05-11T19:18:28.150Z,80.00
2019-05-11T19:19:26.222Z,72.00
2019-05-11T19:20:28.248Z,64.00
2019-05-11T19:21:26.210Z,56.00
2019-05-11T19:22:28.712Z,48.00
2019-05-11T19:23:28.465Z,44.00
2019-05-11T19:24:27.805Z,40.00
2019-05-11T19:25:26.125Z,36.00
2019-05-11T19:26:26.089Z,32.00
2019-05-11T19:27:26.070Z,24.00
2019-05-11T19:28:28.062Z,24.00
2019-05-11T19:29:28.242Z,20.00
2019-05-11T19:30:27.701Z,16.00
2019-05-11T19:31:28.096Z,16.00
2019-05-11T19:32:28.269Z,16.00
2019-05-11T19:33:27.824Z,12.00
2019-05-11T19:34:28.105Z,8.00
2019-05-11T19:35:28.112Z,8.00
